Time;durP1;ratioP1;P1;durP2;ratioP2;P2;SDS_P1;SDS_P2;PMS_P1;PMS_P2;Temp;Humidity;BMP_temperature;BMP_pressure;BME280_temperature;BME280_humidity;BME280_pressure;Samples;Min_cycle;Max_cycle;Signal;HPM_P1;HPM_P2
2021/12/26 00:00:45;;;;;;;155.47;75.87;;;;;;;0.32;100.00;-23824.28;5093114;28;20610;-69
2021/12/26 00:03:11;;;;;;;146.33;71.27;;;;;;;0.32;100.00;-23824.28;5093116;28;20173;-69
2021/12/26 00:05:37;;;;;;;143.10;72.17;;;;;;;-0.34;100.00;-23805.50;5074350;28;20516;-69
2021/12/26 00:08:03;;;;;;;150.20;74.70;;;;;;;-0.14;100.00;-23811.09;5092005;28;20188;-69
2021/12/26 00:10:29;;;;;;;146.77;71.53;;;;;;;0.24;100.00;-23821.97;5092999;28;20710;-68
2021/12/26 00:12:56;;;;;;;149.27;73.80;;;;;;;0.35;100.00;-23825.13;5092734;28;20173;-69
2021/12/26 00:15:21;;;;;;;143.63;71.13;;;;;;;-0.15;100.00;-23810.97;5092777;28;20624;-69
2021/12/26 00:17:47;;;;;;;143.20;71.57;;;;;;;-0.03;100.00;-23814.38;5091702;28;20178;-69
2021/12/26 00:20:14;;;;;;;145.43;70.87;;;;;;;0.27;100.00;-23822.84;5091694;28;20177;-69
2021/12/26 00:22:41;;;;;;;148.17;71.07;;;;;;;-0.21;100.00;-23809.22;5092634;28;20787;-69
2021/12/26 00:25:07;;;;;;;139.60;69.97;;;;;;;0.14;100.00;-23819.13;5092609;28;20176;-69
2021/12/26 00:27:34;;;;;;;141.50;71.10;;;;;;;0.33;100.00;-23824.41;5074419;28;20675;-69
2021/12/26 00:29:59;;;;;;;153.13;70.77;;;;;;;0.02;100.00;-23815.69;5091781;28;20181;-68
2021/12/26 00:32:25;;;;;;;150.17;73.13;;;;;;;0.26;100.00;-23822.41;5090903;28;20238;-69
2021/12/26 00:34:51;;;;;;;145.97;73.50;;;;;;;-0.17;100.00;-23810.25;5076659;28;20554;-69
2021/12/26 00:37:18;;;;;;;151.90;74.90;;;;;;;0.23;100.00;-23821.56;5092270;28;20196;-68
2021/12/26 00:39:44;;;;;;;137.77;67.47;;;;;;;-0.07;100.00;-23813.09;5092215;28;20206;-69
2021/12/26 00:42:09;;;;;;;134.07;67.17;;;;;;;0.32;100.00;-23824.13;5092143;28;20260;-69
2021/12/26 00:44:39;;;;;;;145.10;68.73;;;;;;;0.31;100.00;-23823.84;5091933;28;20272;-68
2021/12/26 00:47:07;;;;;;;142.53;69.27;;;;;;;-0.06;100.00;-23813.38;5091191;28;20225;-69
2021/12/26 00:49:32;;;;;;;139.00;68.97;;;;;;;0.43;100.00;-23827.28;5091772;28;20213;-69
2021/12/26 00:51:57;;;;;;;139.53;69.93;;;;;;;0.37;100.00;-23825.69;5092188;28;20640;-69
2021/12/26 00:54:23;;;;;;;138.93;70.23;;;;;;;0.35;100.00;-23825.13;5089433;28;20181;-69
2021/12/26 00:56:48;;;;;;;151.73;71.87;;;;;;;0.43;100.00;-23827.28;5091965;28;20668;-69
2021/12/26 00:59:14;;;;;;;147.97;72.53;;;;;;;0.05;100.00;-23816.41;5090141;28;20668;-69
2021/12/26 01:01:40;;;;;;;133.07;64.87;;;;;;;0.41;100.00;-23826.84;5091209;28;20189;-69
2021/12/26 01:04:05;;;;;;;127.17;63.70;;;;;;;0.45;100.00;-23827.84;5090026;28;20229;-69
2021/12/26 01:06:31;;;;;;;123.77;61.03;;;;;;;0.20;100.00;-23820.84;5091528;28;20216;-69
2021/12/26 01:08:57;;;;;;;143.33;74.43;;;;;;;0.50;100.00;-23829.28;5091553;28;20177;-69
2021/12/26 01:11:37;;;;;;;129.23;66.93;;;;;;;0.65;100.00;-23833.44;5088464;28;20196;-69
2021/12/26 01:14:06;;;;;;;139.47;78.57;;;;;;;0.15;100.00;-23819.25;5091010;28;20220;-68
2021/12/26 01:16:32;;;;;;;136.33;71.93;;;;;;;0.51;100.00;-23829.44;5091717;28;20209;-69
2021/12/26 01:19:08;;;;;;;129.90;62.87;;;;;;;0.29;100.00;-23823.28;5090426;28;20239;-69
2021/12/26 01:21:34;;;;;;;121.53;60.33;;;;;;;0.21;100.00;-23820.97;5090091;28;20185;-69
2021/12/26 01:24:04;;;;;;;136.50;67.03;;;;;;;0.21;100.00;-23820.97;5091677;28;20186;-69
2021/12/26 01:26:30;;;;;;;128.43;62.17;;;;;;;0.58;100.00;-23831.44;5091598;28;20814;-69
2021/12/26 01:28:56;;;;;;;132.47;67.23;;;;;;;0.24;100.00;-23821.97;5091712;28;20175;-69
2021/12/26 01:31:23;;;;;;;130.37;64.73;;;;;;;0.49;100.00;-23828.84;5090879;28;20218;-69
2021/12/26 01:33:51;;;;;;;128.27;65.40;;;;;;;0.47;100.00;-23828.41;5088505;28;20201;-69
2021/12/26 01:36:16;;;;;;;136.43;70.10;;;;;;;-0.08;100.00;-23812.97;5083293;28;20296;-67
2021/12/26 01:38:42;;;;;;;132.03;67.17;;;;;;;0.33;100.00;-23824.41;5092017;28;20216;-69
2021/12/26 01:41:10;;;;;;;132.57;65.17;;;;;;;0.61;100.00;-23832.44;5091176;28;20228;-69
2021/12/26 01:43:38;;;;;;;120.63;61.27;;;;;;;0.28;100.00;-23823.13;5090598;28;20217;-69
2021/12/26 01:46:04;;;;;;;117.03;59.60;;;;;;;0.04;100.00;-23816.13;5094919;28;20226;-69
2021/12/26 01:48:30;;;;;;;110.67;56.10;;;;;;;-0.15;100.00;-23810.97;5095040;28;20642;-69
2021/12/26 01:50:56;;;;;;;113.10;55.57;;;;;;;0.07;100.00;-23816.97;5093955;28;20662;-69
2021/12/26 01:53:25;;;;;;;114.73;58.07;;;;;;;0.50;100.00;-23829.13;5093464;28;20185;-69
2021/12/26 01:55:53;;;;;;;88.50;44.73;;;;;;;0.75;100.00;-23836.44;5094726;28;20204;-69
2021/12/26 01:58:21;;;;;;;114.23;58.23;;;;;;;0.86;100.00;-23839.59;5094125;28;20932;-69
2021/12/26 02:00:51;;;;;;;118.80;61.37;;;;;;;0.35;100.00;-23825.13;5095314;28;20165;-69
2021/12/26 02:03:17;;;;;;;122.13;61.97;;;;;;;0.24;100.00;-23821.84;5094046;28;20537;-69
2021/12/26 02:05:43;;;;;;;122.37;60.63;;;;;;;0.39;100.00;-23826.13;5094739;28;20185;-69
2021/12/26 02:08:09;;;;;;;116.53;59.17;;;;;;;0.47;100.00;-23828.28;5093244;28;20205;-69
2021/12/26 02:10:34;;;;;;;134.43;63.80;;;;;;;0.42;100.00;-23827.13;5093508;28;20185;-69
2021/12/26 02:13:00;;;;;;;133.10;67.10;;;;;;;-0.11;100.00;-23811.97;5095267;28;20188;-69
2021/12/26 02:15:25;;;;;;;127.80;65.87;;;;;;;-0.18;100.00;-23810.09;5094472;28;20201;-69
2021/12/26 02:17:51;;;;;;;134.50;68.53;;;;;;;0.37;100.00;-23825.69;5095153;28;20253;-69
2021/12/26 02:20:33;;;;;;;140.93;68.60;;;;;;;0.50;100.00;-23829.28;5094658;28;20205;-69
2021/12/26 02:23:05;;;;;;;131.83;66.77;;;;;;;0.29;100.00;-23823.41;5095131;28;20225;-70
2021/12/26 02:28:13;;;;;;;124.57;64.63;;;;;;;-0.25;100.00;-23808.09;5090397;28;20602;-69
2021/12/26 02:30:40;;;;;;;123.10;62.43;;;;;;;-0.04;100.00;-23814.09;5093213;28;20233;-69
2021/12/26 02:33:10;;;;;;;131.40;64.57;;;;;;;-0.26;100.00;-23807.66;5095128;28;20178;-69
2021/12/26 02:35:36;;;;;;;140.10;70.50;;;;;;;0.31;100.00;-23823.84;5074728;28;20194;-69
2021/12/26 02:38:02;;;;;;;243.60;126.67;;;;;;;-0.15;100.00;-23810.81;5066454;28;20552;-69
2021/12/26 02:40:27;;;;;;;281.17;143.87;;;;;;;0.39;100.00;-23826.13;5094756;28;20188;-69
2021/12/26 02:42:53;;;;;;;273.70;142.77;;;;;;;0.38;100.00;-23825.84;5094533;28;20181;-69
2021/12/26 02:45:18;;;;;;;249.83;124.87;;;;;;;0.37;100.00;-23825.56;5093765;28;20556;-69
2021/12/26 02:47:46;;;;;;;231.30;118.70;;;;;;;0.33;100.00;-23824.56;5091772;28;20210;-69
2021/12/26 02:50:26;;;;;;;211.70;112.00;;;;;;;0.61;100.00;-23832.44;5094041;28;20285;-69
2021/12/26 02:52:52;;;;;;;163.43;84.63;;;;;;;0.78;100.00;-23837.16;5093779;28;20263;-69
2021/12/26 02:55:20;;;;;;;134.43;68.10;;;;;;;0.60;100.00;-23832.00;5092378;28;20209;-69
2021/12/26 02:57:55;;;;;;;131.20;65.77;;;;;;;0.45;100.00;-23827.84;5093730;28;20192;-69
2021/12/26 03:00:24;;;;;;;141.60;69.83;;;;;;;0.46;100.00;-23828.13;5093830;28;20223;-66
2021/12/26 03:02:53;;;;;;;136.97;70.37;;;;;;;0.49;100.00;-23829.00;5095001;28;20189;-69
2021/12/26 03:05:20;;;;;;;138.03;70.77;;;;;;;0.06;100.00;-23816.69;5092402;28;20180;-70
2021/12/26 03:07:47;;;;;;;138.07;69.70;;;;;;;0.47;100.00;-23828.41;5089783;28;20182;-69
2021/12/26 03:10:21;;;;;;;133.20;67.37;;;;;;;0.03;100.00;-23815.97;5094175;28;20571;-69
2021/12/26 03:12:53;;;;;;;131.53;64.10;;;;;;;-0.60;100.00;-23798.06;5092309;28;20560;-70
2021/12/26 03:15:19;;;;;;;125.87;64.40;;;;;;;0.48;100.00;-23828.56;5092334;28;20196;-69
2021/12/26 03:17:45;;;;;;;130.87;65.03;;;;;;;-0.16;100.00;-23810.53;5093587;28;20185;-69
2021/12/26 03:20:13;;;;;;;134.00;67.13;;;;;;;0.29;100.00;-23823.41;5093718;28;20177;-69
2021/12/26 03:22:39;;;;;;;137.77;66.70;;;;;;;0.11;100.00;-23818.13;5091740;28;20245;-67
2021/12/26 03:25:09;;;;;;;135.73;69.77;;;;;;;0.27;100.00;-23822.69;5092877;28;20178;-68
2021/12/26 03:27:34;;;;;;;133.33;66.57;;;;;;;0.46;100.00;-23828.13;5091448;28;20272;-68
2021/12/26 03:29:59;;;;;;;128.17;64.40;;;;;;;0.58;100.00;-23831.44;5093389;28;20683;-67
2021/12/26 03:32:25;;;;;;;125.80;65.83;;;;;;;0.02;100.00;-23815.69;5092672;28;20282;-68
2021/12/26 03:34:51;;;;;;;136.17;65.80;;;;;;;0.01;100.00;-23815.41;5093306;28;20558;-68
2021/12/26 03:37:17;;;;;;;135.13;68.07;;;;;;;0.43;100.00;-23827.28;5092946;28;20192;-68
2021/12/26 03:39:43;;;;;;;142.87;70.83;;;;;;;0.55;100.00;-23830.72;5092498;28;20177;-68
2021/12/26 03:42:09;;;;;;;128.67;65.43;;;;;;;0.30;100.00;-23823.69;5092055;28;20184;-68
2021/12/26 03:44:35;;;;;;;132.47;66.83;;;;;;;0.50;100.00;-23829.13;5092332;28;20272;-68
2021/12/26 03:47:00;;;;;;;143.33;71.73;;;;;;;0.58;100.00;-23831.56;5088597;28;20277;-68
2021/12/26 03:49:26;;;;;;;140.13;68.47;;;;;;;0.38;100.00;-23826.00;5092587;28;20183;-68
2021/12/26 03:51:52;;;;;;;137.57;68.87;;;;;;;0.49;100.00;-23828.84;5091801;28;20173;-67
2021/12/26 03:54:17;;;;;;;139.90;69.20;;;;;;;0.51;100.00;-23829.56;5091408;28;20647;-68
2021/12/26 03:56:43;;;;;;;127.77;67.53;;;;;;;0.24;100.00;-23821.84;5091207;28;20205;-68
2021/12/26 03:59:09;;;;;;;127.67;64.07;;;;;;;-0.02;100.00;-23814.53;5092174;28;20639;-68
2021/12/26 04:01:35;;;;;;;131.40;64.63;;;;;;;0.59;100.00;-23831.84;5090821;28;20588;-68
2021/12/26 04:04:01;;;;;;;133.10;64.23;;;;;;;0.53;100.00;-23830.00;5090816;28;20649;-68
2021/12/26 04:06:26;;;;;;;117.67;59.50;;;;;;;0.13;100.00;-23818.69;5090426;28;20199;-67
2021/12/26 04:08:52;;;;;;;123.00;59.73;;;;;;;0.26;100.00;-23822.41;5092837;28;20657;-68
2021/12/26 04:11:18;;;;;;;107.83;57.03;;;;;;;0.49;100.00;-23828.84;5073724;28;20188;-68
2021/12/26 04:13:44;;;;;;;115.80;57.97;;;;;;;-0.18;100.00;-23810.09;5092912;28;21518;-68
2021/12/26 04:16:09;;;;;;;117.37;57.40;;;;;;;0.19;100.00;-23820.41;5091807;28;20208;-68
2021/12/26 04:18:35;;;;;;;118.43;59.30;;;;;;;0.35;100.00;-23825.13;5091810;28;20260;-68
2021/12/26 04:21:01;;;;;;;122.93;60.90;;;;;;;0.18;100.00;-23820.25;5083202;28;20188;-68
2021/12/26 04:23:26;;;;;;;114.50;58.67;;;;;;;0.09;100.00;-23817.53;5091679;28;20200;-68
2021/12/26 04:25:52;;;;;;;117.37;58.53;;;;;;;-0.24;100.00;-23808.38;5092540;28;20214;-68
2021/12/26 04:28:19;;;;;;;123.13;58.47;;;;;;;-0.30;100.00;-23806.66;5091565;28;20204;-68
2021/12/26 04:30:46;;;;;;;120.60;60.60;;;;;;;0.04;100.00;-23816.25;5088769;28;20169;-68
2021/12/26 04:33:11;;;;;;;122.77;58.90;;;;;;;-0.13;100.00;-23811.53;5091626;28;20704;-68
2021/12/26 04:35:37;;;;;;;117.10;58.03;;;;;;;-0.24;100.00;-23808.22;5092220;28;20275;-68
2021/12/26 04:38:02;;;;;;;117.87;58.50;;;;;;;0.19;100.00;-23820.41;5091644;28;20189;-68
2021/12/26 04:40:28;;;;;;;116.80;60.17;;;;;;;0.06;100.00;-23816.81;5090965;28;20219;-68
2021/12/26 04:42:54;;;;;;;129.77;61.30;;;;;;;0.10;100.00;-23817.81;5090326;28;20183;-68
2021/12/26 04:45:20;;;;;;;121.07;61.70;;;;;;;-0.30;100.00;-23806.66;5091203;28;20206;-68
2021/12/26 04:47:46;;;;;;;129.43;62.53;;;;;;;-0.09;100.00;-23812.66;5090275;28;20230;-68
2021/12/26 04:50:16;;;;;;;124.53;64.10;;;;;;;0.09;100.00;-23817.69;5090642;28;20638;-68
2021/12/26 04:52:43;;;;;;;126.50;62.73;;;;;;;0.19;100.00;-23820.53;5090828;28;20187;-68
2021/12/26 04:55:11;;;;;;;132.23;64.93;;;;;;;0.24;100.00;-23821.97;5090998;28;20201;-68
2021/12/26 04:57:37;;;;;;;130.00;65.30;;;;;;;0.27;100.00;-23822.69;5091335;28;20184;-68
2021/12/26 05:00:06;;;;;;;130.43;64.20;;;;;;;-0.36;100.00;-23804.78;5091505;28;20260;-68
2021/12/26 05:02:34;;;;;;;122.40;62.10;;;;;;;-0.01;100.00;-23814.97;5090776;28;20177;-68
2021/12/26 05:05:00;;;;;;;123.27;61.27;;;;;;;0.00;100.00;-23815.09;5091398;28;20543;-68
2021/12/26 05:07:26;;;;;;;123.07;62.97;;;;;;;0.33;100.00;-23824.41;5091078;28;20184;-69
2021/12/26 05:09:51;;;;;;;122.43;61.07;;;;;;;0.28;100.00;-23822.97;5089193;28;20222;-68
2021/12/26 05:12:17;;;;;;;113.63;59.63;;;;;;;-0.29;100.00;-23806.81;5091729;28;20207;-68
2021/12/26 05:14:42;;;;;;;122.80;59.70;;;;;;;-0.19;100.00;-23809.81;5091570;28;20247;-68
2021/12/26 05:17:07;;;;;;;127.67;62.10;;;;;;;-0.11;100.00;-23812.09;5090638;28;20630;-68
2021/12/26 05:19:33;;;;;;;130.07;63.60;;;;;;;-0.01;100.00;-23814.97;5090505;28;20173;-68
2021/12/26 05:21:58;;;;;;;124.37;62.37;;;;;;;-0.19;100.00;-23809.81;5091621;28;20191;-69
2021/12/26 05:24:24;;;;;;;121.30;62.07;;;;;;;0.19;100.00;-23820.41;5090816;28;20602;-68
2021/12/26 05:26:49;;;;;;;124.20;61.73;;;;;;;0.47;100.00;-23828.41;5091840;28;20660;-68
2021/12/26 05:29:15;;;;;;;126.47;61.30;;;;;;;0.30;100.00;-23823.56;5091148;28;20183;-68
2021/12/26 05:31:40;;;;;;;124.93;61.27;;;;;;;0.19;100.00;-23820.41;5090613;28;20290;-69
2021/12/26 05:34:05;;;;;;;114.50;60.90;;;;;;;0.31;100.00;-23823.84;5090458;28;20185;-69
2021/12/26 05:36:31;;;;;;;123.27;61.63;;;;;;;0.33;100.00;-23824.41;5091318;28;21722;-69
2021/12/26 05:38:57;;;;;;;119.10;60.73;;;;;;;0.31;100.00;-23823.84;5091575;28;20230;-69
2021/12/26 05:41:22;;;;;;;118.87;59.47;;;;;;;0.00;100.00;-23815.25;5090692;28;20707;-69
2021/12/26 05:43:48;;;;;;;119.83;59.90;;;;;;;0.13;100.00;-23818.69;5091468;28;20596;-69
2021/12/26 05:46:13;;;;;;;124.37;58.73;;;;;;;0.67;100.00;-23834.16;5090616;28;20186;-69
2021/12/26 05:48:39;;;;;;;113.13;56.53;;;;;;;0.04;100.00;-23816.13;5090881;28;20205;-69
2021/12/26 05:51:04;;;;;;;113.87;56.70;;;;;;;0.08;100.00;-23817.41;5088042;28;20232;-69
2021/12/26 05:53:30;;;;;;;115.43;61.40;;;;;;;0.45;100.00;-23827.84;5091800;28;20190;-69
2021/12/26 05:55:55;;;;;;;111.33;55.97;;;;;;;0.20;100.00;-23820.69;5091353;28;20291;-69
2021/12/26 05:58:20;;;;;;;108.27;54.97;;;;;;;0.50;100.00;-23829.13;5090040;28;20209;-68
2021/12/26 06:00:46;;;;;;;110.73;55.63;;;;;;;0.02;100.00;-23815.53;5090473;28;20601;-69
2021/12/26 06:03:11;;;;;;;111.87;55.93;;;;;;;0.50;100.00;-23829.28;5091144;28;20188;-69
2021/12/26 06:05:37;;;;;;;114.60;60.23;;;;;;;0.26;100.00;-23822.41;5091057;28;20178;-68
2021/12/26 06:08:03;;;;;;;106.03;55.80;;;;;;;0.29;100.00;-23823.28;5089461;28;20182;-68
2021/12/26 06:10:28;;;;;;;104.27;52.87;;;;;;;0.44;100.00;-23827.56;5091204;28;20201;-69
2021/12/26 06:12:53;;;;;;;103.37;51.90;;;;;;;0.30;100.00;-23823.69;5090046;28;20191;-69
2021/12/26 06:15:19;;;;;;;104.00;56.53;;;;;;;0.66;100.00;-23833.84;5090158;28;20200;-69
2021/12/26 06:17:44;;;;;;;108.70;56.77;;;;;;;0.65;100.00;-23833.44;5090218;28;20269;-69
2021/12/26 06:20:14;;;;;;;94.30;52.40;;;;;;;0.91;100.00;-23840.72;5090957;28;20182;-69
2021/12/26 06:22:41;;;;;;;92.83;49.23;;;;;;;0.44;100.00;-23827.72;5091188;28;20374;-69
2021/12/26 06:25:08;;;;;;;104.73;52.63;;;;;;;1.04;100.00;-23844.59;5090652;28;20211;-69
2021/12/26 06:27:36;;;;;;;96.47;49.90;;;;;;;0.32;100.00;-23824.13;5091202;28;20193;-69
2021/12/26 06:30:01;;;;;;;104.93;53.73;;;;;;;0.93;100.00;-23841.28;5091238;28;20180;-69
2021/12/26 06:32:26;;;;;;;90.70;49.50;;;;;;;1.08;100.00;-23845.72;5094640;28;20283;-69
2021/12/26 06:34:52;;;;;;;95.60;49.87;;;;;;;0.88;100.00;-23840.16;5095248;28;20537;-69
2021/12/26 06:37:17;;;;;;;100.17;51.77;;;;;;;0.74;100.00;-23836.00;5094726;28;20176;-68
2021/12/26 06:39:43;;;;;;;108.03;55.20;;;;;;;0.92;100.00;-23841.00;5093280;28;20236;-69
2021/12/26 06:42:08;;;;;;;106.00;51.67;;;;;;;0.61;100.00;-23832.44;5094676;28;20272;-70
2021/12/26 06:44:34;;;;;;;96.57;49.97;;;;;;;1.03;100.00;-23844.31;5094377;28;20197;-68
2021/12/26 06:47:00;;;;;;;97.70;51.20;;;;;;;0.97;100.00;-23842.59;5094246;28;20166;-69
2021/12/26 06:49:25;;;;;;;100.77;51.97;;;;;;;1.10;100.00;-23846.31;5092078;28;20179;-68
2021/12/26 06:51:50;;;;;;;98.03;51.23;;;;;;;0.61;100.00;-23832.44;5094645;28;20184;-71
2021/12/26 06:54:16;;;;;;;101.97;51.47;;;;;;;0.79;100.00;-23837.56;5095125;28;20210;-70
2021/12/26 06:56:41;;;;;;;99.17;53.03;;;;;;;1.39;100.00;-23854.31;5094384;28;20211;-70
2021/12/26 06:59:07;;;;;;;99.70;51.67;;;;;;;1.57;100.00;-23859.47;5094148;28;20183;-69
2021/12/26 07:01:33;;;;;;;146.10;66.60;;;;;;;1.06;100.00;-23845.16;5075949;28;20645;-71
2021/12/26 07:03:58;;;;;;;111.93;56.30;;;;;;;1.22;100.00;-23849.72;5094191;28;20222;-69
2021/12/26 07:06:24;;;;;;;98.30;52.17;;;;;;;1.59;100.00;-23860.03;5094225;28;20540;-68
2021/12/26 07:08:49;;;;;;;93.53;48.37;;;;;;;1.77;100.00;-23865.16;5094347;28;20638;-68
2021/12/26 07:11:17;;;;;;;90.73;48.47;;;;;;;1.83;100.00;-23866.75;5094672;28;20180;-69
2021/12/26 07:13:43;;;;;;;86.87;47.10;;;;;;;1.69;100.00;-23862.88;5093707;28;20683;-69
2021/12/26 07:16:08;;;;;;;96.13;50.53;;;;;;;1.69;100.00;-23862.88;5093864;28;20195;-69
2021/12/26 07:18:34;;;;;;;99.63;53.07;;;;;;;1.50;100.00;-23857.59;5093258;28;20195;-70
2021/12/26 07:20:59;;;;;;;100.17;52.50;;;;;;;1.70;100.00;-23863.31;5094017;28;20193;-69
2021/12/26 07:23:25;;;;;;;100.60;52.43;;;;;;;1.39;100.00;-23854.44;5094147;28;20216;-69
2021/12/26 07:25:50;;;;;;;107.77;54.17;;;;;;;1.91;100.00;-23869.03;5094345;28;20191;-69
2021/12/26 07:28:16;;;;;;;99.93;53.60;;;;;;;2.09;100.00;-23874.16;5091800;28;20187;-69
2021/12/26 07:30:41;;;;;;;101.13;55.13;;;;;;;2.08;100.00;-23873.88;5093259;28;20656;-69
2021/12/26 07:33:07;;;;;;;97.43;51.47;;;;;;;2.27;100.00;-23879.16;5094060;28;20534;-69
2021/12/26 07:35:32;;;;;;;95.70;51.27;;;;;;;1.89;100.00;-23868.59;5092167;28;20205;-69
2021/12/26 07:37:58;;;;;;;97.70;50.87;;;;;;;2.22;100.00;-23877.88;5092925;28;20213;-69
2021/12/26 07:40:24;;;;;;;92.30;51.23;;;;;;;2.25;100.00;-23878.59;5092795;28;20189;-68
2021/12/26 07:42:50;;;;;;;95.63;52.00;;;;;;;2.46;100.00;-23884.59;5092018;28;20177;-69
2021/12/26 07:45:16;;;;;;;91.23;47.93;;;;;;;2.40;100.00;-23882.88;5091929;28;20649;-69
2021/12/26 07:47:42;;;;;;;94.47;50.73;;;;;;;2.22;100.00;-23878.03;5092630;28;20191;-69
2021/12/26 07:50:08;;;;;;;93.43;50.83;;;;;;;2.24;100.00;-23878.47;5091007;28;20708;-70
2021/12/26 07:52:38;;;;;;;88.03;49.90;;;;;;;2.65;100.00;-23890.16;5090308;28;20649;-70
2021/12/26 07:55:05;;;;;;;93.10;50.40;;;;;;;2.60;100.00;-23888.72;5091720;28;20188;-69
2021/12/26 07:57:31;;;;;;;87.57;49.97;;;;;;;2.16;100.00;-23876.31;5092100;28;20193;-71
2021/12/26 07:59:57;;;;;;;91.27;50.33;;;;;;;2.35;100.00;-23881.47;5090983;28;20331;-69
2021/12/26 08:02:22;;;;;;;94.57;53.10;;;;;;;2.43;100.00;-23883.88;5091604;28;20185;-69
2021/12/26 08:04:48;;;;;;;95.43;52.10;;;;;;;2.69;100.00;-23891.16;5091452;28;20177;-68
2021/12/26 08:07:14;;;;;;;96.07;51.57;;;;;;;2.33;100.00;-23881.03;5091694;28;20192;-69
2021/12/26 08:09:40;;;;;;;96.73;53.10;;;;;;;2.76;100.00;-23893.00;5088723;28;20193;-69
2021/12/26 08:12:06;;;;;;;100.07;53.50;;;;;;;2.28;100.00;-23879.44;5090277;28;20179;-69
2021/12/26 08:14:31;;;;;;;95.47;52.00;;;;;;;2.70;100.00;-23891.31;5091243;28;20185;-69
2021/12/26 08:16:57;;;;;;;98.43;50.77;;;;;;;2.41;100.00;-23883.16;5091476;28;20667;-69
2021/12/26 08:19:22;;;;;;;92.93;49.73;;;;;;;2.60;100.00;-23888.72;5091288;28;20589;-69
2021/12/26 08:21:51;;;;;;;100.73;51.03;;;;;;;2.71;100.00;-23891.59;5090646;28;20277;-69
2021/12/26 08:24:17;;;;;;;93.47;52.23;;;;;;;2.76;100.00;-23893.00;5091165;28;20174;-69
2021/12/26 08:26:42;;;;;;;98.53;52.47;;;;;;;3.05;100.00;-23901.44;5077499;28;20238;-69
2021/12/26 08:29:08;;;;;;;90.77;51.20;;;;;;;2.77;100.00;-23893.31;5090253;28;20181;-69
2021/12/26 08:31:33;;;;;;;85.57;47.70;;;;;;;2.96;100.00;-23898.72;5091579;28;20232;-69
2021/12/26 08:33:59;;;;;;;91.03;49.70;;;;;;;3.27;100.00;-23907.56;5089371;28;20170;-68
2021/12/26 08:36:24;;;;;;;85.37;47.47;;;;;;;3.33;100.00;-23909.13;5089599;28;20215;-69
2021/12/26 08:38:50;;;;;;;83.73;45.73;;;;;;;3.59;100.00;-23916.41;5088361;28;20181;-68
2021/12/26 08:41:16;;;;;;;75.87;43.07;;;;;;;3.59;100.00;-23916.53;5090531;28;20185;-69
2021/12/26 08:43:43;;;;;;;82.27;46.17;;;;;;;3.56;100.00;-23915.69;5090452;28;20173;-69
2021/12/26 08:46:10;;;;;;;80.87;46.43;;;;;;;3.19;100.00;-23905.13;5079276;28;20177;-69
2021/12/26 08:48:36;;;;;;;78.83;45.90;;;;;;;3.71;100.00;-23919.81;5090892;28;20656;-69
2021/12/26 08:51:02;;;;;;;80.37;47.20;;;;;;;3.79;100.00;-23922.09;5088402;28;20229;-69
2021/12/26 08:53:28;;;;;;;87.57;48.77;;;;;;;3.46;100.00;-23912.97;5089211;28;20187;-69
2021/12/26 08:55:54;;;;;;;82.13;47.37;;;;;;;2.91;100.00;-23897.28;5091032;28;20201;-69
2021/12/26 08:58:20;;;;;;;82.00;46.77;;;;;;;2.99;100.00;-23899.72;5092240;28;20173;-69
2021/12/26 09:00:46;;;;;;;86.13;46.03;;;;;;;2.89;100.00;-23896.88;5091062;28;20593;-69
2021/12/26 09:03:12;;;;;;;78.03;43.43;;;;;;;2.71;100.00;-23891.72;5091730;28;20189;-69
2021/12/26 09:05:37;;;;;;;73.63;41.67;;;;;;;2.60;100.00;-23888.72;5090658;28;20186;-69
2021/12/26 09:08:04;;;;;;;62.37;36.20;;;;;;;2.50;100.00;-23885.72;5091677;28;20326;-68
2021/12/26 09:10:30;;;;;;;63.40;37.30;;;;;;;2.68;100.00;-23890.88;5090126;28;20708;-68
2021/12/26 09:12:55;;;;;;;65.17;35.80;;;;;;;2.85;100.00;-23895.59;5090226;28;20267;-68
2021/12/26 09:15:22;;;;;;;50.30;29.77;;;;;;;2.65;100.00;-23890.16;5089397;28;20209;-68
2021/12/26 09:17:48;;;;;;;49.53;29.63;;;;;;;2.73;100.00;-23892.16;5086769;28;20181;-68
2021/12/26 09:20:14;;;;;;;51.83;30.50;;;;;;;3.20;100.00;-23905.41;5090740;28;20262;-68
2021/12/26 09:22:40;;;;;;;53.27;30.73;;;;;;;3.18;100.00;-23904.84;5089987;28;20664;-68
2021/12/26 09:25:06;;;;;;;52.57;29.33;;;;;;;3.80;100.00;-23922.38;5088844;28;20177;-68
2021/12/26 09:27:32;;;;;;;47.30;28.13;;;;;;;4.26;100.00;-23935.34;5090645;28;20185;-69
2021/12/26 09:29:57;;;;;;;46.20;28.53;;;;;;;3.70;100.00;-23919.69;5091645;28;20179;-69
2021/12/26 09:32:23;;;;;;;51.13;29.83;;;;;;;4.17;100.00;-23932.78;5091527;28;20614;-69
2021/12/26 09:34:48;;;;;;;50.33;30.20;;;;;;;4.94;100.00;-23954.41;5091324;28;20177;-69
2021/12/26 09:37:14;;;;;;;54.07;30.63;;;;;;;4.97;100.00;-23955.41;5091661;28;20209;-69
2021/12/26 09:39:40;;;;;;;54.83;29.90;;;;;;;5.14;100.00;-23960.25;5091813;28;20209;-69
2021/12/26 09:42:06;;;;;;;51.37;30.73;;;;;;;5.37;100.00;-23966.50;5073604;28;20327;-68
2021/12/26 09:44:32;;;;;;;48.37;29.53;;;;;;;5.79;100.00;-23978.59;5091503;28;20238;-68
2021/12/26 09:46:57;;;;;;;48.83;29.97;;;;;;;5.81;100.00;-23978.88;5091733;28;20233;-71
2021/12/26 09:49:23;;;;;;;48.37;30.20;;;;;;;6.54;100.00;-23999.47;5091959;28;20185;-68
2021/12/26 09:51:50;;;;;;;50.27;30.40;;;;;;;6.25;100.00;-23991.38;5091557;28;20211;-70
2021/12/26 09:54:16;;;;;;;50.23;31.03;;;;;;;6.62;100.00;-24001.75;5091680;28;20173;-70
2021/12/26 09:56:41;;;;;;;48.77;30.30;;;;;;;6.54;100.00;-23999.63;5073169;28;20205;-69
2021/12/26 09:59:15;;;;;;;49.50;30.33;;;;;;;7.05;100.00;-24013.94;5091371;28;20174;-70
2021/12/26 10:01:47;;;;;;;47.20;27.77;;;;;;;6.50;100.00;-23998.34;5091790;28;20234;-69
2021/12/26 10:04:28;;;;;;;42.70;26.60;;;;;;;6.41;100.00;-23995.91;5090432;28;20205;-69
2021/12/26 10:07:14;;;;;;;42.43;26.97;;;;;;;6.14;100.00;-23988.41;5092607;28;20192;-69
2021/12/26 10:09:44;;;;;;;42.50;26.60;;;;;;;6.71;100.00;-24004.16;5094145;28;20230;-70
2021/12/26 10:12:13;;;;;;;42.07;26.67;;;;;;;6.56;100.00;-24000.03;5094783;28;20193;-69
2021/12/26 10:14:40;;;;;;;40.67;25.73;;;;;;;7.08;100.00;-24014.78;5093371;28;20177;-69
2021/12/26 10:17:09;;;;;;;38.90;25.17;;;;;;;7.25;100.00;-24019.34;5093248;28;20559;-69
2021/12/26 10:19:41;;;;;;;40.30;25.17;;;;;;;7.53;100.00;-24027.28;5093515;28;20185;-69
2021/12/26 10:22:08;;;;;;;40.27;25.90;;;;;;;7.00;100.00;-24012.53;5094431;28;20224;-69
2021/12/26 10:24:37;;;;;;;42.23;26.23;;;;;;;6.51;100.00;-23998.75;5088473;28;21365;-68
2021/12/26 10:27:04;;;;;;;43.47;27.70;;;;;;;6.96;100.00;-24011.25;5092968;28;20277;-69
2021/12/26 10:29:33;;;;;;;47.07;27.53;;;;;;;6.48;100.00;-23997.75;5094242;28;20176;-69
2021/12/26 10:32:04;;;;;;;45.17;27.70;;;;;;;6.57;100.00;-24000.31;5094310;28;20628;-68
2021/12/26 10:34:50;;;;;;;47.23;28.83;;;;;;;6.12;100.00;-23987.81;5094134;28;20181;-68
2021/12/26 10:37:28;;;;;;;51.63;31.33;;;;;;;6.53;100.00;-23999.19;5094930;28;20213;-69
2021/12/26 10:39:56;;;;;;;49.50;31.27;;;;;;;6.24;100.00;-23990.94;5094915;28;20153;-69
2021/12/26 10:42:30;;;;;;;53.27;31.83;;;;;;;6.18;100.00;-23989.53;5094606;28;20268;-68
2021/12/26 10:44:58;;;;;;;52.20;31.53;;;;;;;6.41;100.00;-23995.78;5093867;28;20181;-69
2021/12/26 10:47:29;;;;;;;50.73;32.63;;;;;;;6.70;100.00;-24004.00;5092780;28;20181;-71
2021/12/26 10:50:03;;;;;;;52.00;32.40;;;;;;;7.07;100.00;-24014.38;5092637;28;20225;-68
2021/12/26 10:52:38;;;;;;;51.57;32.07;;;;;;;6.99;100.00;-24012.09;5092807;28;20232;-69
2021/12/26 10:55:11;;;;;;;54.67;31.83;;;;;;;7.09;100.00;-24015.06;5093076;28;20180;-69
2021/12/26 10:57:42;;;;;;;47.77;32.03;;;;;;;6.96;100.00;-24011.38;5091877;28;20251;-68
2021/12/26 11:00:10;;;;;;;50.13;30.77;;;;;;;7.51;100.00;-24026.84;5089878;28;20173;-69
2021/12/26 11:02:37;;;;;;;54.33;32.10;;;;;;;7.68;100.00;-24031.53;5089504;28;20184;-69
2021/12/26 11:05:06;;;;;;;47.93;29.93;;;;;;;7.68;100.00;-24031.38;5094165;28;20181;-69